sensor_id;sensor_type;location;lat;lon;timestamp;pressure;altitude;pressure_sealevel;temperature;humidity
25855;BME280;13680;49.936;11.344;2022-10-16T00:01:26;96586.75;;;16.77;91.94
25855;BME280;13680;49.936;11.344;2022-10-16T00:03:52;96593.09;;;16.81;91.98
25855;BME280;13680;49.936;11.344;2022-10-16T00:06:19;96590.28;;;16.78;92.61
25855;BME280;13680;49.936;11.344;2022-10-16T00:08:46;96595.47;;;16.83;91.99
25855;BME280;13680;49.936;11.344;2022-10-16T00:11:16;96600.56;;;16.84;92.26
25855;BME280;13680;49.936;11.344;2022-10-16T00:13:43;96600.56;;;16.84;92.15
25855;BME280;13680;49.936;11.344;2022-10-16T00:16:10;96594.88;;;16.90;91.99
25855;BME280;13680;49.936;11.344;2022-10-16T00:18:36;96592.50;;;16.88;91.92
25855;BME280;13680;49.936;11.344;2022-10-16T00:21:15;96589.13;;;16.91;91.75
25855;BME280;13680;49.936;11.344;2022-10-16T00:23:40;96600.31;;;16.90;91.85
25855;BME280;13680;49.936;11.344;2022-10-16T00:26:09;96599.22;;;16.91;91.97
25855;BME280;13680;49.936;11.344;2022-10-16T00:28:35;96601.94;;;16.91;91.89
25855;BME280;13680;49.936;11.344;2022-10-16T00:31:05;96605.75;;;16.90;91.88
25855;BME280;13680;49.936;11.344;2022-10-16T00:33:31;96606.31;;;16.95;91.81
25855;BME280;13680;49.936;11.344;2022-10-16T00:36:01;96605.06;;;16.93;91.59
25855;BME280;13680;49.936;11.344;2022-10-16T00:38:27;96604.41;;;16.96;91.68
25855;BME280;13680;49.936;11.344;2022-10-16T00:40:52;96602.25;;;16.89;91.85
25855;BME280;13680;49.936;11.344;2022-10-16T00:46:09;96598.50;;;16.94;91.45
25855;BME280;13680;49.936;11.344;2022-10-16T00:48:35;96593.97;;;16.98;91.57
25855;BME280;13680;49.936;11.344;2022-10-16T00:51:01;96603.94;;;16.94;91.44
25855;BME280;13680;49.936;11.344;2022-10-16T00:53:26;96592.47;;;17.00;90.91
25855;BME280;13680;49.936;11.344;2022-10-16T00:55:53;96605.53;;;16.95;90.95
25855;BME280;13680;49.936;11.344;2022-10-16T00:58:18;96601.22;;;16.94;91.21
25855;BME280;13680;49.936;11.344;2022-10-16T01:00:44;96599.84;;;16.88;91.59
25855;BME280;13680;49.936;11.344;2022-10-16T01:03:32;96595.38;;;16.92;91.60
25855;BME280;13680;49.936;11.344;2022-10-16T01:11:44;96602.50;;;16.84;91.45
25855;BME280;13680;49.936;11.344;2022-10-16T01:14:37;96605.97;;;16.84;90.88
25855;BME280;13680;49.936;11.344;2022-10-16T01:17:11;96597.50;;;16.86;90.94
25855;BME280;13680;49.936;11.344;2022-10-16T01:19:52;96606.22;;;16.79;90.64
25855;BME280;13680;49.936;11.344;2022-10-16T01:22:25;96612.78;;;16.78;91.07
25855;BME280;13680;49.936;11.344;2022-10-16T01:24:55;96612.78;;;16.78;91.17
25855;BME280;13680;49.936;11.344;2022-10-16T01:27:26;96611.91;;;16.74;91.12
25855;BME280;13680;49.936;11.344;2022-10-16T01:29:56;96619.81;;;16.79;91.03
25855;BME280;13680;49.936;11.344;2022-10-16T01:32:41;96619.00;;;16.79;91.06
25855;BME280;13680;49.936;11.344;2022-10-16T01:35:26;96621.38;;;16.80;91.06
25855;BME280;13680;49.936;11.344;2022-10-16T01:38:11;96611.09;;;16.74;91.60
25855;BME280;13680;49.936;11.344;2022-10-16T01:40:39;96612.78;;;16.78;91.63
25855;BME280;13680;49.936;11.344;2022-10-16T01:43:12;96618.56;;;16.77;91.62
25855;BME280;13680;49.936;11.344;2022-10-16T01:45:41;96614.13;;;16.84;91.04
25855;BME280;13680;49.936;11.344;2022-10-16T01:48:09;96602.13;;;16.85;91.07
25855;BME280;13680;49.936;11.344;2022-10-16T01:50:38;96612.19;;;16.85;91.43
25855;BME280;13680;49.936;11.344;2022-10-16T01:53:05;96616.06;;;16.84;91.17
25855;BME280;13680;49.936;11.344;2022-10-16T01:55:36;96618.22;;;16.78;91.54
25855;BME280;13680;49.936;11.344;2022-10-16T01:58:03;96617.09;;;16.79;91.31
25855;BME280;13680;49.936;11.344;2022-10-16T02:00:31;96615.50;;;16.78;91.55
25855;BME280;13680;49.936;11.344;2022-10-16T02:02:57;96610.97;;;16.82;91.42
25855;BME280;13680;49.936;11.344;2022-10-16T02:05:27;96609.06;;;16.83;91.28
25855;BME280;13680;49.936;11.344;2022-10-16T02:07:53;96611.31;;;16.81;91.21
25855;BME280;13680;49.936;11.344;2022-10-16T02:10:19;96608.94;;;16.79;91.08
25855;BME280;13680;49.936;11.344;2022-10-16T02:12:50;96620.16;;;16.78;91.08
25855;BME280;13680;49.936;11.344;2022-10-16T02:15:18;96620.03;;;16.74;90.29
25855;BME280;13680;49.936;11.344;2022-10-16T02:17:44;96622.28;;;16.72;90.82
25855;BME280;13680;49.936;11.344;2022-10-16T02:20:09;96623.22;;;16.64;90.54
25855;BME280;13680;49.936;11.344;2022-10-16T02:22:39;96622.75;;;16.74;90.29
25855;BME280;13680;49.936;11.344;2022-10-16T02:25:32;96633.84;;;16.69;90.88
25855;BME280;13680;49.936;11.344;2022-10-16T02:28:04;96627.28;;;16.70;91.04
25855;BME280;13680;49.936;11.344;2022-10-16T02:30:37;96631.25;;;16.73;90.85
25855;BME280;13680;49.936;11.344;2022-10-16T02:33:07;96631.25;;;16.73;90.93
25855;BME280;13680;49.936;11.344;2022-10-16T02:35:34;96635.22;;;16.75;91.00
25855;BME280;13680;49.936;11.344;2022-10-16T02:38:01;96635.22;;;16.75;91.18
25855;BME280;13680;49.936;11.344;2022-10-16T02:40:27;96639.03;;;16.74;91.22
25855;BME280;13680;49.936;11.344;2022-10-16T02:42:53;96633.03;;;16.81;91.05
25855;BME280;13680;49.936;11.344;2022-10-16T02:45:19;96631.91;;;16.82;91.10
25855;BME280;13680;49.936;11.344;2022-10-16T02:47:45;96632.25;;;16.80;91.48
25855;BME280;13680;49.936;11.344;2022-10-16T02:50:10;96636.22;;;16.83;91.52
25855;BME280;13680;49.936;11.344;2022-10-16T02:52:36;96629.19;;;16.82;91.49
25855;BME280;13680;49.936;11.344;2022-10-16T02:55:01;96636.75;;;16.76;91.77
25855;BME280;13680;49.936;11.344;2022-10-16T02:57:27;96634.97;;;16.80;92.12
25855;BME280;13680;49.936;11.344;2022-10-16T02:59:52;96637.69;;;16.80;91.80
25855;BME280;13680;49.936;11.344;2022-10-16T03:02:17;96642.41;;;16.83;91.85
25855;BME280;13680;49.936;11.344;2022-10-16T03:04:42;96635.06;;;16.84;91.71
25855;BME280;13680;49.936;11.344;2022-10-16T03:07:08;96643.31;;;16.88;91.82
25855;BME280;13680;49.936;11.344;2022-10-16T03:09:33;96637.88;;;16.88;91.64
25855;BME280;13680;49.936;11.344;2022-10-16T03:11:59;96642.53;;;16.87;92.00
25855;BME280;13680;49.936;11.344;2022-10-16T03:14:24;96643.66;;;16.86;91.73
25855;BME280;13680;49.936;11.344;2022-10-16T03:16:50;96650.81;;;16.91;91.75
25855;BME280;13680;49.936;11.344;2022-10-16T03:19:18;96651.16;;;16.77;92.52
25855;BME280;13680;49.936;11.344;2022-10-16T03:21:44;96653.63;;;16.82;92.13
25855;BME280;13680;49.936;11.344;2022-10-16T03:24:09;96646.25;;;16.82;92.24
25855;BME280;13680;49.936;11.344;2022-10-16T03:26:35;96657.47;;;16.81;92.47
25855;BME280;13680;49.936;11.344;2022-10-16T03:29:00;96653.28;;;16.83;92.21
25855;BME280;13680;49.936;11.344;2022-10-16T03:31:27;96648.19;;;16.82;92.53
25855;BME280;13680;49.936;11.344;2022-10-16T03:33:52;96633.13;;;16.84;92.18
25855;BME280;13680;49.936;11.344;2022-10-16T03:36:18;96637.78;;;16.84;92.63
25855;BME280;13680;49.936;11.344;2022-10-16T03:38:43;96645.59;;;16.85;92.38
25855;BME280;13680;49.936;11.344;2022-10-16T03:41:08;96638.56;;;16.84;92.61
25855;BME280;13680;49.936;11.344;2022-10-16T03:43:34;96638.13;;;16.82;92.96
25855;BME280;13680;49.936;11.344;2022-10-16T03:45:59;96645.81;;;16.80;92.27
25855;BME280;13680;49.936;11.344;2022-10-16T03:48:24;96654.41;;;16.82;92.62
25855;BME280;13680;49.936;11.344;2022-10-16T03:50:49;96654.16;;;16.88;92.40
25855;BME280;13680;49.936;11.344;2022-10-16T03:53:17;96649.97;;;16.90;92.40
25855;BME280;13680;49.936;11.344;2022-10-16T03:55:43;96663.00;;;16.84;92.64
25855;BME280;13680;49.936;11.344;2022-10-16T03:58:08;96660.19;;;16.81;92.61
25855;BME280;13680;49.936;11.344;2022-10-16T04:00:33;96664.41;;;16.91;92.29
25855;BME280;13680;49.936;11.344;2022-10-16T04:02:59;96663.00;;;16.84;92.92
25855;BME280;13680;49.936;11.344;2022-10-16T04:05:25;96656.56;;;16.89;92.26
25855;BME280;13680;49.936;11.344;2022-10-16T04:07:50;96660.75;;;16.87;92.61
25855;BME280;13680;49.936;11.344;2022-10-16T04:10:16;96662.09;;;16.93;92.21
25855;BME280;13680;49.936;11.344;2022-10-16T04:12:41;96654.41;;;16.95;92.15
25855;BME280;13680;49.936;11.344;2022-10-16T04:15:07;96661.44;;;16.96;91.91
25855;BME280;13680;49.936;11.344;2022-10-16T04:17:32;96662.22;;;16.96;91.86
25855;BME280;13680;49.936;11.344;2022-10-16T04:19:57;96664.59;;;16.98;92.05
25855;BME280;13680;49.936;11.344;2022-10-16T04:22:23;96664.03;;;16.92;92.21
25855;BME280;13680;49.936;11.344;2022-10-16T04:24:48;96665.03;;;16.88;92.45
25855;BME280;13680;49.936;11.344;2022-10-16T04:27:13;96673.63;;;16.90;92.16
25855;BME280;13680;49.936;11.344;2022-10-16T04:29:39;96670.59;;;16.91;92.30
25855;BME280;13680;49.936;11.344;2022-10-16T04:32:04;96667.53;;;16.93;92.36
25855;BME280;13680;49.936;11.344;2022-10-16T04:34:29;96677.28;;;16.94;92.03
25855;BME280;13680;49.936;11.344;2022-10-16T04:36:55;96671.50;;;16.95;92.66
25855;BME280;13680;49.936;11.344;2022-10-16T04:39:20;96677.97;;;16.91;92.57
25855;BME280;13680;49.936;11.344;2022-10-16T04:41:45;96678.88;;;16.95;92.25
25855;BME280;13680;49.936;11.344;2022-10-16T04:44:11;96687.00;;;16.95;92.61
25855;BME280;13680;49.936;11.344;2022-10-16T04:46:36;96683.16;;;16.96;92.41
25855;BME280;13680;49.936;11.344;2022-10-16T04:49:01;96693.34;;;16.99;92.38
25855;BME280;13680;49.936;11.344;2022-10-16T04:51:27;96689.50;;;17.00;92.33
25855;BME280;13680;49.936;11.344;2022-10-16T04:53:53;96690.84;;;16.94;92.59
25855;BME280;13680;49.936;11.344;2022-10-16T04:56:20;96694.16;;;16.99;92.55
25855;BME280;13680;49.936;11.344;2022-10-16T04:58:46;96692.56;;;16.98;92.23
25855;BME280;13680;49.936;11.344;2022-10-16T05:01:11;96694.03;;;16.96;91.94
25855;BME280;13680;49.936;11.344;2022-10-16T05:03:37;96690.63;;;16.99;92.29
25855;BME280;13680;49.936;11.344;2022-10-16T05:06:05;96689.50;;;17.00;92.29
25855;BME280;13680;49.936;11.344;2022-10-16T05:08:30;96693.34;;;16.99;91.99
25855;BME280;13680;49.936;11.344;2022-10-16T05:10:56;96694.16;;;16.99;92.05
25855;BME280;13680;49.936;11.344;2022-10-16T05:13:21;96701.13;;;17.00;92.13
25855;BME280;13680;49.936;11.344;2022-10-16T05:15:48;96698.78;;;16.99;91.66
25855;BME280;13680;49.936;11.344;2022-10-16T05:18:14;96700.34;;;17.00;92.10
25855;BME280;13680;49.936;11.344;2022-10-16T05:20:39;96700.56;;;17.07;91.62
25855;BME280;13680;49.936;11.344;2022-10-16T05:23:05;96701.47;;;16.99;91.94
25855;BME280;13680;49.936;11.344;2022-10-16T05:25:31;96698.00;;;16.98;91.62
25855;BME280;13680;49.936;11.344;2022-10-16T05:27:56;96701.38;;;16.95;91.77
25855;BME280;13680;49.936;11.344;2022-10-16T05:30:21;96705.13;;;16.91;92.04
25855;BME280;13680;49.936;11.344;2022-10-16T05:32:48;96709.09;;;16.93;91.85
25855;BME280;13680;49.936;11.344;2022-10-16T05:35:14;96707.34;;;16.89;92.04
25855;BME280;13680;49.936;11.344;2022-10-16T05:37:39;96702.84;;;16.93;92.35
25855;BME280;13680;49.936;11.344;2022-10-16T05:40:05;96705.44;;;16.89;92.49
25855;BME280;13680;49.936;11.344;2022-10-16T05:42:31;96709.28;;;16.88;92.25
25855;BME280;13680;49.936;11.344;2022-10-16T05:44:56;96708.63;;;16.91;91.86
25855;BME280;13680;49.936;11.344;2022-10-16T05:47:21;96722.53;;;16.90;92.08
25855;BME280;13680;49.936;11.344;2022-10-16T05:49:47;96721.28;;;16.87;91.77
25855;BME280;13680;49.936;11.344;2022-10-16T05:52:12;96721.63;;;16.85;91.94
25855;BME280;13680;49.936;11.344;2022-10-16T05:54:37;96735.09;;;16.82;92.08
25855;BME280;13680;49.936;11.344;2022-10-16T05:57:03;96731.50;;;16.78;92.09
25855;BME280;13680;49.936;11.344;2022-10-16T05:59:30;96728.88;;;16.81;92.39
25855;BME280;13680;49.936;11.344;2022-10-16T06:01:56;96740.19;;;16.83;92.70
25855;BME280;13680;49.936;11.344;2022-10-16T06:04:21;96736.88;;;16.90;91.85
25855;BME280;13680;49.936;11.344;2022-10-16T06:06:46;96737.59;;;16.87;91.99
25855;BME280;13680;49.936;11.344;2022-10-16T06:09:12;96732.63;;;16.89;91.79
25855;BME280;13680;49.936;11.344;2022-10-16T06:11:37;96727.72;;;16.82;92.63
25855;BME280;13680;49.936;11.344;2022-10-16T06:14:02;96742.91;;;16.83;92.96
25855;BME280;13680;49.936;11.344;2022-10-16T06:16:34;96759.88;;;16.93;92.29
25855;BME280;13680;49.936;11.344;2022-10-16T06:19:00;96750.63;;;16.94;92.50
25855;BME280;13680;49.936;11.344;2022-10-16T06:21:27;96760.00;;;16.96;92.20
25855;BME280;13680;49.936;11.344;2022-10-16T06:23:54;96755.69;;;16.95;92.31
25855;BME280;13680;49.936;11.344;2022-10-16T06:26:22;96765.66;;;17.04;92.00
25855;BME280;13680;49.936;11.344;2022-10-16T06:28:48;96764.84;;;17.03;91.95
25855;BME280;13680;49.936;11.344;2022-10-16T06:31:14;96769.63;;;17.06;92.24
25855;BME280;13680;49.936;11.344;2022-10-16T06:33:40;96773.94;;;17.07;92.19
25855;BME280;13680;49.936;11.344;2022-10-16T06:36:09;96775.72;;;17.15;91.91
25855;BME280;13680;49.936;11.344;2022-10-16T06:38:35;96780.03;;;17.16;91.84
25855;BME280;13680;49.936;11.344;2022-10-16T06:41:01;96781.16;;;17.15;91.78
25855;BME280;13680;49.936;11.344;2022-10-16T06:43:28;96777.06;;;17.22;92.02
25855;BME280;13680;49.936;11.344;2022-10-16T06:45:58;96774.81;;;17.24;91.62
25855;BME280;13680;49.936;11.344;2022-10-16T06:48:24;96792.00;;;17.28;91.49
25855;BME280;13680;49.936;11.344;2022-10-16T06:51:06;96794.03;;;17.31;91.42
25855;BME280;13680;49.936;11.344;2022-10-16T06:53:36;96803.66;;;17.28;91.42
25855;BME280;13680;49.936;11.344;2022-10-16T06:56:13;96793.59;;;17.29;91.28
25855;BME280;13680;49.936;11.344;2022-10-16T06:58:39;96780.91;;;17.33;91.29
25855;BME280;13680;49.936;11.344;2022-10-16T07:01:05;96798.34;;;17.32;91.38
25855;BME280;13680;49.936;11.344;2022-10-16T07:03:32;96792.91;;;17.32;91.40
25855;BME280;13680;49.936;11.344;2022-10-16T07:06:01;96803.22;;;17.26;91.95
25855;BME280;13680;49.936;11.344;2022-10-16T07:08:27;96816.94;;;17.30;91.64
25855;BME280;13680;49.936;11.344;2022-10-16T07:11:10;96828.69;;;17.34;91.86
25855;BME280;13680;49.936;11.344;2022-10-16T07:13:37;96832.31;;;17.38;92.13
25855;BME280;13680;49.936;11.344;2022-10-16T07:18:32;96833.88;;;17.51;91.59
25855;BME280;13680;49.936;11.344;2022-10-16T07:23:29;96828.31;;;17.60;91.35
25855;BME280;13680;49.936;11.344;2022-10-16T07:25:55;96836.56;;;17.64;91.05
25855;BME280;13680;49.936;11.344;2022-10-16T07:28:21;96832.00;;;17.68;91.19
25855;BME280;13680;49.936;11.344;2022-10-16T07:30:47;96844.91;;;17.83;90.58
25855;BME280;13680;49.936;11.344;2022-10-16T07:33:12;96847.53;;;17.80;90.33
25855;BME280;13680;49.936;11.344;2022-10-16T07:35:38;96848.44;;;17.72;90.60
25855;BME280;13680;49.936;11.344;2022-10-16T07:38:03;96842.91;;;17.68;89.93
25855;BME280;13680;49.936;11.344;2022-10-16T07:40:28;96845.25;;;17.82;89.54
25855;BME280;13680;49.936;11.344;2022-10-16T07:42:53;96850.91;;;17.89;89.13
25855;BME280;13680;49.936;11.344;2022-10-16T07:45:19;96856.69;;;17.88;89.55
25855;BME280;13680;49.936;11.344;2022-10-16T07:47:44;96856.66;;;18.00;88.36
25855;BME280;13680;49.936;11.344;2022-10-16T07:50:09;96864.81;;;18.00;88.49
25855;BME280;13680;49.936;11.344;2022-10-16T07:52:35;96864.34;;;18.10;88.54
25855;BME280;13680;49.936;11.344;2022-10-16T07:55:00;96867.63;;;18.16;88.08
25855;BME280;13680;49.936;11.344;2022-10-16T07:57:25;96866.13;;;18.19;88.00
25855;BME280;13680;49.936;11.344;2022-10-16T07:59:51;96863.16;;;18.24;87.38
25855;BME280;13680;49.936;11.344;2022-10-16T08:02:16;96861.97;;;18.37;87.40
25855;BME280;13680;49.936;11.344;2022-10-16T08:04:41;96864.72;;;18.53;87.01
25855;BME280;13680;49.936;11.344;2022-10-16T08:07:07;96855.25;;;18.63;86.28
25855;BME280;13680;49.936;11.344;2022-10-16T08:09:33;96862.13;;;18.73;85.95
25855;BME280;13680;49.936;11.344;2022-10-16T08:11:59;96865.75;;;18.93;85.26
25855;BME280;13680;49.936;11.344;2022-10-16T08:14:24;96867.84;;;19.16;84.66
25855;BME280;13680;49.936;11.344;2022-10-16T08:16:49;96857.72;;;19.32;84.29
25855;BME280;13680;49.936;11.344;2022-10-16T08:19:15;96866.09;;;19.39;83.67
25855;BME280;13680;49.936;11.344;2022-10-16T08:21:40;96864.81;;;19.53;82.57
25855;BME280;13680;49.936;11.344;2022-10-16T08:24:06;96869.56;;;19.56;82.35
25855;BME280;13680;49.936;11.344;2022-10-16T08:26:31;96864.25;;;19.63;80.77
25855;BME280;13680;49.936;11.344;2022-10-16T08:28:56;96866.13;;;19.59;80.61
25855;BME280;13680;49.936;11.344;2022-10-16T08:31:22;96866.56;;;19.61;80.86
25855;BME280;13680;49.936;11.344;2022-10-16T08:33:48;96862.66;;;19.62;81.08
25855;BME280;13680;49.936;11.344;2022-10-16T08:36:15;96878.63;;;19.60;80.61
25855;BME280;13680;49.936;11.344;2022-10-16T08:38:41;96886.00;;;19.59;79.79
25855;BME280;13680;49.936;11.344;2022-10-16T08:41:20;96883.16;;;19.72;79.96
25855;BME280;13680;49.936;11.344;2022-10-16T08:44:17;96890.97;;;19.73;80.16
25855;BME280;13680;49.936;11.344;2022-10-16T08:46:59;96898.81;;;19.91;79.62
25855;BME280;13680;49.936;11.344;2022-10-16T08:49:27;96897.38;;;20.17;79.17
25855;BME280;13680;49.936;11.344;2022-10-16T08:51:52;96897.50;;;19.85;78.42
25855;BME280;13680;49.936;11.344;2022-10-16T08:54:41;96905.75;;;19.88;77.46
25855;BME280;13680;49.936;11.344;2022-10-16T08:57:19;96905.31;;;19.86;79.33
25855;BME280;13680;49.936;11.344;2022-10-16T08:59:45;96911.75;;;19.94;79.54
25855;BME280;13680;49.936;11.344;2022-10-16T09:08:06;96916.78;;;20.11;79.72
25855;BME280;13680;49.936;11.344;2022-10-16T09:15:47;96915.50;;;20.25;79.19
25855;BME280;13680;49.936;11.344;2022-10-16T09:18:29;96909.81;;;20.34;78.32
25855;BME280;13680;49.936;11.344;2022-10-16T09:21:01;96897.38;;;20.56;77.37
25855;BME280;13680;49.936;11.344;2022-10-16T09:23:32;96894.34;;;20.61;77.40
25855;BME280;13680;49.936;11.344;2022-10-16T09:25:59;96900.09;;;20.56;73.29
25855;BME280;13680;49.936;11.344;2022-10-16T09:28:25;96904.78;;;20.55;73.88
25855;BME280;13680;49.936;11.344;2022-10-16T09:30:51;96905.13;;;20.73;72.59
25855;BME280;13680;49.936;11.344;2022-10-16T09:33:19;96902.31;;;20.70;74.17
25855;BME280;13680;49.936;11.344;2022-10-16T09:35:48;96914.81;;;20.90;72.79
25855;BME280;13680;49.936;11.344;2022-10-16T09:38:32;96906.00;;;21.01;71.72
25855;BME280;13680;49.936;11.344;2022-10-16T09:41:21;96915.16;;;21.12;71.75
25855;BME280;13680;49.936;11.344;2022-10-16T09:44:00;96908.41;;;21.29;72.20
25855;BME280;13680;49.936;11.344;2022-10-16T09:48:56;96912.50;;;21.16;71.22
25855;BME280;13680;49.936;11.344;2022-10-16T09:53:49;96918.75;;;21.16;70.45
25855;BME280;13680;49.936;11.344;2022-10-16T09:56:31;96921.97;;;21.22;70.60
25855;BME280;13680;49.936;11.344;2022-10-16T09:59:08;96925.34;;;21.12;70.51
25855;BME280;13680;49.936;11.344;2022-10-16T10:01:39;96932.50;;;21.20;71.12
25855;BME280;13680;49.936;11.344;2022-10-16T10:04:05;96928.38;;;21.06;70.80
25855;BME280;13680;49.936;11.344;2022-10-16T10:06:34;96929.03;;;21.23;71.40
25855;BME280;13680;49.936;11.344;2022-10-16T10:11:38;96931.81;;;21.03;72.46
25855;BME280;13680;49.936;11.344;2022-10-16T10:14:44;96936.13;;;21.28;70.79
25855;BME280;13680;49.936;11.344;2022-10-16T10:17:20;96935.03;;;21.32;71.79
25855;BME280;13680;49.936;11.344;2022-10-16T10:19:53;96933.81;;;21.53;71.53
25855;BME280;13680;49.936;11.344;2022-10-16T10:22:40;96932.00;;;21.37;71.68
25855;BME280;13680;49.936;11.344;2022-10-16T10:30:19;96920.28;;;21.37;71.28
25855;BME280;13680;49.936;11.344;2022-10-16T10:35:49;96929.31;;;21.41;70.76
25855;BME280;13680;49.936;11.344;2022-10-16T10:49:50;96935.09;;;21.59;69.69
25855;BME280;13680;49.936;11.344;2022-10-16T10:53:10;96936.56;;;21.80;69.69
25855;BME280;13680;49.936;11.344;2022-10-16T10:55:28;96932.88;;;21.68;68.49
25855;BME280;13680;49.936;11.344;2022-10-16T10:58:53;96940.72;;;21.70;69.96
25855;BME280;13680;49.936;11.344;2022-10-16T11:06:20;96941.78;;;21.62;69.63
25855;BME280;13680;49.936;11.344;2022-10-16T11:11:45;96937.78;;;21.82;68.40
25855;BME280;13680;49.936;11.344;2022-10-16T11:14:28;96936.50;;;22.03;69.35
25855;BME280;13680;49.936;11.344;2022-10-16T11:17:07;96934.25;;;21.55;69.74
25855;BME280;13680;49.936;11.344;2022-10-16T11:19:42;96941.28;;;21.79;69.28
25855;BME280;13680;49.936;11.344;2022-10-16T11:22:19;96944.81;;;22.10;69.60
25855;BME280;13680;49.936;11.344;2022-10-16T11:24:53;96944.03;;;22.10;67.10
25855;BME280;13680;49.936;11.344;2022-10-16T11:27:27;96946.09;;;22.47;66.78
25855;BME280;13680;49.936;11.344;2022-10-16T11:29:59;96939.78;;;22.77;66.09
25855;BME280;13680;49.936;11.344;2022-10-16T11:32:32;96942.41;;;22.69;64.04
25855;BME280;13680;49.936;11.344;2022-10-16T11:35:03;96940.06;;;22.68;65.84
25855;BME280;13680;49.936;11.344;2022-10-16T11:37:37;96946.41;;;22.76;64.87
25855;BME280;13680;49.936;11.344;2022-10-16T11:42:46;96947.50;;;22.67;64.95
25855;BME280;13680;49.936;11.344;2022-10-16T11:45:49;96943.44;;;22.54;65.02
25855;BME280;13680;49.936;11.344;2022-10-16T11:48:39;96944.22;;;22.24;65.43
25855;BME280;13680;49.936;11.344;2022-10-16T11:51:36;96940.47;;;22.70;64.29
25855;BME280;13680;49.936;11.344;2022-10-16T11:56:29;96951.69;;;22.92;64.38
25855;BME280;13680;49.936;11.344;2022-10-16T11:59:12;96946.50;;;23.24;62.67
25855;BME280;13680;49.936;11.344;2022-10-16T12:01:52;96952.31;;;23.64;61.70
25855;BME280;13680;49.936;11.344;2022-10-16T12:07:08;96959.56;;;22.97;60.59
25855;BME280;13680;49.936;11.344;2022-10-16T12:09:38;96973.81;;;22.76;61.34
25855;BME280;13680;49.936;11.344;2022-10-16T12:12:04;96986.41;;;22.46;62.77
25855;BME280;13680;49.936;11.344;2022-10-16T12:14:36;96999.78;;;22.51;64.19
25855;BME280;13680;49.936;11.344;2022-10-16T12:17:04;97010.19;;;22.12;67.78
25855;BME280;13680;49.936;11.344;2022-10-16T12:20:18;97010.59;;;21.87;69.91
25855;BME280;13680;49.936;11.344;2022-10-16T12:22:52;97013.53;;;21.51;71.52
25855;BME280;13680;49.936;11.344;2022-10-16T12:30:38;96993.31;;;21.13;73.00
25855;BME280;13680;49.936;11.344;2022-10-16T12:33:05;96981.91;;;21.31;72.27
25855;BME280;13680;49.936;11.344;2022-10-16T12:35:43;96981.53;;;21.79;71.78
25855;BME280;13680;49.936;11.344;2022-10-16T12:38:19;96978.66;;;22.52;69.76
25855;BME280;13680;49.936;11.344;2022-10-16T12:41:07;96979.00;;;23.63;63.27
25855;BME280;13680;49.936;11.344;2022-10-16T12:43:47;96977.34;;;24.00;61.50
25855;BME280;13680;49.936;11.344;2022-10-16T12:48:40;96971.59;;;25.40;57.82
25855;BME280;13680;49.936;11.344;2022-10-16T12:51:33;96971.47;;;26.30;54.64
25855;BME280;13680;49.936;11.344;2022-10-16T12:54:13;96971.16;;;27.10;51.78
25855;BME280;13680;49.936;11.344;2022-10-16T13:02:22;96955.50;;;26.89;51.57
25855;BME280;13680;49.936;11.344;2022-10-16T13:10:40;96965.78;;;27.48;49.76
25855;BME280;13680;49.936;11.344;2022-10-16T13:21:07;96961.03;;;29.52;46.68
25855;BME280;13680;49.936;11.344;2022-10-16T13:24:02;96970.19;;;29.73;44.98
25855;BME280;13680;49.936;11.344;2022-10-16T13:26:49;96976.22;;;29.92;44.81
25855;BME280;13680;49.936;11.344;2022-10-16T13:29:18;96976.06;;;30.43;41.70
25855;BME280;13680;49.936;11.344;2022-10-16T13:31:44;96974.81;;;30.67;41.30
25855;BME280;13680;49.936;11.344;2022-10-16T13:34:16;96982.97;;;30.34;41.62
25855;BME280;13680;49.936;11.344;2022-10-16T13:36:48;96978.53;;;30.61;41.19
25855;BME280;13680;49.936;11.344;2022-10-16T13:39:25;96988.50;;;30.95;39.46
25855;BME280;13680;49.936;11.344;2022-10-16T13:42:12;96983.84;;;31.28;40.13
25855;BME280;13680;49.936;11.344;2022-10-16T13:44:44;96988.09;;;31.33;38.38
25855;BME280;13680;49.936;11.344;2022-10-16T13:47:48;96983.66;;;31.19;39.87
25855;BME280;13680;49.936;11.344;2022-10-16T13:50:12;96988.91;;;31.66;37.79
25855;BME280;13680;49.936;11.344;2022-10-16T13:52:38;96981.06;;;31.45;38.47
25855;BME280;13680;49.936;11.344;2022-10-16T13:55:10;96980.91;;;31.52;38.02
25855;BME280;13680;49.936;11.344;2022-10-16T13:57:35;96981.06;;;31.61;39.04
25855;BME280;13680;49.936;11.344;2022-10-16T14:00:00;96984.63;;;31.62;38.80
25855;BME280;13680;49.936;11.344;2022-10-16T14:02:38;96986.97;;;31.47;38.94
25855;BME280;13680;49.936;11.344;2022-10-16T14:05:08;96990.88;;;31.33;39.36
25855;BME280;13680;49.936;11.344;2022-10-16T14:07:36;96992.63;;;31.43;39.60
25855;BME280;13680;49.936;11.344;2022-10-16T14:10:18;96989.06;;;31.59;39.16
25855;BME280;13680;49.936;11.344;2022-10-16T14:12:53;96994.09;;;31.31;39.22
25855;BME280;13680;49.936;11.344;2022-10-16T14:15:19;96998.22;;;30.46;40.97
25855;BME280;13680;49.936;11.344;2022-10-16T14:17:46;97005.31;;;29.56;42.39
25855;BME280;13680;49.936;11.344;2022-10-16T14:20:14;97010.94;;;29.21;43.10
25855;BME280;13680;49.936;11.344;2022-10-16T14:22:41;97009.31;;;28.97;44.24
25855;BME280;13680;49.936;11.344;2022-10-16T14:25:33;97008.34;;;29.38;43.70
25855;BME280;13680;49.936;11.344;2022-10-16T14:28:16;97008.19;;;29.72;42.70
25855;BME280;13680;49.936;11.344;2022-10-16T14:33:53;97002.75;;;29.14;43.03
25855;BME280;13680;49.936;11.344;2022-10-16T14:36:18;97006.03;;;28.40;45.03
25855;BME280;13680;49.936;11.344;2022-10-16T14:39:02;97010.06;;;27.30;47.62
25855;BME280;13680;49.936;11.344;2022-10-16T14:41:30;97011.63;;;26.46;49.38
25855;BME280;13680;49.936;11.344;2022-10-16T14:44:01;97007.78;;;25.68;51.85